createdAt,value
2022-08-28T00:00:30.561Z,32.30
2022-08-28T00:02:57.484Z,32.30
2022-08-28T00:05:26.119Z,32.40
2022-08-28T00:07:53.115Z,32.50
2022-08-28T00:10:22.348Z,32.40
2022-08-28T00:12:50.617Z,32.50
2022-08-28T00:15:19.415Z,32.60
2022-08-28T00:17:46.981Z,33.40
2022-08-28T00:20:14.729Z,33.90
2022-08-28T00:22:41.888Z,34.20
2022-08-28T00:25:09.936Z,34.50
2022-08-28T00:27:55.644Z,34.70
2022-08-28T00:30:31.352Z,35.00
2022-08-28T00:33:04.123Z,33.70
2022-08-28T00:35:31.028Z,34.10
2022-08-28T00:37:57.872Z,34.30
2022-08-28T00:40:28.827Z,34.50
2022-08-28T00:43:00.490Z,34.50
2022-08-28T00:45:28.607Z,35.00
2022-08-28T00:47:55.509Z,35.10
2022-08-28T00:50:24.763Z,34.90
2022-08-28T00:52:53.448Z,34.50
2022-08-28T00:55:22.556Z,34.10
2022-08-28T00:57:51.224Z,34.20
2022-08-28T01:00:38.457Z,33.80
2022-08-28T01:03:05.907Z,33.70
2022-08-28T01:05:34.952Z,33.90
2022-08-28T01:08:02.250Z,34.00
2022-08-28T01:10:30.854Z,34.50
2022-08-28T01:12:58.511Z,34.50
2022-08-28T01:15:30.142Z,35.00
2022-08-28T01:17:59.422Z,34.90
2022-08-28T01:20:28.395Z,34.80
2022-08-28T01:23:03.014Z,34.40
2022-08-28T01:25:31.395Z,33.90
2022-08-28T01:27:58.395Z,33.50
2022-08-28T01:30:25.350Z,33.30
2022-08-28T01:32:53.969Z,33.10
2022-08-28T01:35:23.583Z,33.00
2022-08-28T01:37:50.488Z,32.70
2022-08-28T01:40:20.464Z,32.70
2022-08-28T01:42:47.419Z,32.80
2022-08-28T01:45:15.710Z,32.90
2022-08-28T01:47:43.574Z,33.00
2022-08-28T01:50:11.541Z,32.90
2022-08-28T01:52:39.868Z,32.80
2022-08-28T01:55:07.190Z,32.80
2022-08-28T01:57:34.542Z,32.80
2022-08-28T02:00:01.702Z,32.60
2022-08-28T02:02:28.935Z,32.70
2022-08-28T02:04:55.762Z,32.70
2022-08-28T02:07:22.651Z,32.60
2022-08-28T02:09:49.496Z,32.60
2022-08-28T02:12:16.567Z,32.80
2022-08-28T02:14:43.451Z,32.80
2022-08-28T02:17:11.765Z,32.60
2022-08-28T02:19:38.622Z,32.60
2022-08-28T02:22:08.390Z,32.50
2022-08-28T02:24:35.573Z,32.40
2022-08-28T02:27:04.141Z,32.90
2022-08-28T02:29:34.001Z,32.80
2022-08-28T02:32:00.896Z,32.70
2022-08-28T02:34:27.767Z,32.50
2022-08-28T02:36:54.962Z,32.60
2022-08-28T02:39:22.104Z,32.70
2022-08-28T02:41:48.922Z,32.60
2022-08-28T02:44:17.905Z,32.60
2022-08-28T02:46:44.786Z,32.50
2022-08-28T02:49:11.616Z,32.60
2022-08-28T02:51:38.490Z,32.70
2022-08-28T02:54:05.371Z,32.70
2022-08-28T02:56:32.365Z,32.80
2022-08-28T02:58:59.245Z,32.70
2022-08-28T03:01:26.169Z,32.60
2022-08-28T03:03:53.164Z,32.80
2022-08-28T03:06:20.070Z,33.10
2022-08-28T03:08:47.031Z,33.10
2022-08-28T03:11:13.920Z,33.20
2022-08-28T03:13:42.049Z,33.30
2022-08-28T03:16:09.008Z,33.20
2022-08-28T03:18:35.953Z,33.20
2022-08-28T03:21:03.226Z,33.10
2022-08-28T03:23:30.291Z,33.10
2022-08-28T03:25:58.441Z,33.00
2022-08-28T03:28:27.229Z,33.10
2022-08-28T03:30:54.584Z,33.00
2022-08-28T03:33:22.015Z,33.10
2022-08-28T03:35:49.347Z,33.10
2022-08-28T03:38:17.142Z,33.00
2022-08-28T03:40:45.524Z,32.90
2022-08-28T03:43:16.883Z,33.00
2022-08-28T03:45:54.209Z,33.00
2022-08-28T03:48:21.396Z,33.00
2022-08-28T03:50:48.289Z,33.30
2022-08-28T03:53:16.021Z,33.30
2022-08-28T03:55:42.933Z,33.10
2022-08-28T03:58:09.755Z,32.90
2022-08-28T04:00:48.074Z,32.80
2022-08-28T04:03:14.948Z,33.00
2022-08-28T04:05:42.808Z,32.90
2022-08-28T04:08:10.086Z,32.80
2022-08-28T04:10:36.949Z,32.70
2022-08-28T04:13:03.992Z,32.80
2022-08-28T04:15:30.950Z,32.60
2022-08-28T04:17:57.928Z,32.50
2022-08-28T04:20:24.805Z,32.40
2022-08-28T04:22:55.023Z,32.40
2022-08-28T04:25:22.770Z,32.20
2022-08-28T04:27:50.612Z,32.10
2022-08-28T04:30:18.897Z,32.20
2022-08-28T04:32:45.784Z,32.30
2022-08-28T04:35:13.397Z,32.50
2022-08-28T04:37:40.712Z,32.40
2022-08-28T04:40:13.081Z,32.20
2022-08-28T04:42:40.320Z,32.10
2022-08-28T04:45:07.707Z,32.00
2022-08-28T04:47:38.639Z,31.90
2022-08-28T04:50:05.866Z,32.00
2022-08-28T04:52:32.762Z,32.10
2022-08-28T04:54:59.677Z,31.90
2022-08-28T04:57:26.544Z,32.30
2022-08-28T04:59:53.449Z,32.30
2022-08-28T05:02:20.706Z,32.30
2022-08-28T05:04:47.714Z,32.10
2022-08-28T05:07:14.659Z,31.80
2022-08-28T05:09:41.655Z,31.70
2022-08-28T05:12:08.760Z,31.60
2022-08-28T05:14:36.007Z,31.80
2022-08-28T05:17:03.127Z,31.70
2022-08-28T05:19:29.955Z,31.90
2022-08-28T05:21:57.028Z,31.70
2022-08-28T05:24:23.943Z,31.60
2022-08-28T05:26:51.035Z,31.50
2022-08-28T05:29:18.237Z,31.60
2022-08-28T05:31:46.339Z,31.80
2022-08-28T05:34:13.785Z,31.70
2022-08-28T05:36:41.380Z,31.70
2022-08-28T05:39:09.827Z,31.70
2022-08-28T05:41:37.162Z,31.50
2022-08-28T05:44:05.410Z,32.00
2022-08-28T05:46:32.304Z,32.00
2022-08-28T05:49:00.962Z,32.40
2022-08-28T05:51:28.353Z,32.30
2022-08-28T05:53:57.824Z,31.90
2022-08-28T05:56:26.709Z,32.00
2022-08-28T05:58:53.661Z,32.00
2022-08-28T06:01:21.992Z,31.90
2022-08-28T06:03:54.457Z,31.70
2022-08-28T06:06:21.889Z,31.70
2022-08-28T06:08:56.319Z,31.60
2022-08-28T06:11:26.378Z,31.40
2022-08-28T06:13:53.735Z,31.10
2022-08-28T06:16:20.644Z,30.70
2022-08-28T06:18:48.096Z,30.40
2022-08-28T06:21:15.421Z,30.50
2022-08-28T06:23:42.859Z,30.10
2022-08-28T06:26:10.036Z,30.00
2022-08-28T06:28:37.401Z,30.10
2022-08-28T06:31:23.931Z,30.00
2022-08-28T06:33:51.541Z,29.90
2022-08-28T06:36:18.491Z,30.00
2022-08-28T06:38:46.910Z,30.00
2022-08-28T06:41:15.811Z,30.50
2022-08-28T06:43:42.936Z,30.80
2022-08-28T06:46:10.156Z,31.00
2022-08-28T06:48:37.095Z,31.50
2022-08-28T06:51:06.505Z,31.70
2022-08-28T06:53:33.667Z,31.90
2022-08-28T06:56:08.748Z,32.30
2022-08-28T06:58:43.156Z,32.40
2022-08-28T07:01:19.057Z,32.40
2022-08-28T07:03:46.258Z,32.10
2022-08-28T07:06:13.839Z,31.90
2022-08-28T07:08:41.370Z,32.20
2022-08-28T07:11:26.349Z,32.20
2022-08-28T07:13:54.302Z,32.00
2022-08-28T07:16:22.470Z,31.80
2022-08-28T07:18:49.745Z,31.70
2022-08-28T07:21:17.035Z,31.60
2022-08-28T07:23:44.631Z,31.60
2022-08-28T07:26:13.236Z,31.80
2022-08-28T07:28:40.343Z,32.00
2022-08-28T07:31:10.022Z,32.10
2022-08-28T07:33:37.971Z,31.80
2022-08-28T07:36:07.232Z,31.80
2022-08-28T07:38:34.298Z,32.10
2022-08-28T07:41:01.329Z,32.50
2022-08-28T07:43:47.088Z,31.80
2022-08-28T07:46:14.306Z,31.80
2022-08-28T07:48:41.909Z,32.10
2022-08-28T07:51:09.609Z,32.10
2022-08-28T07:53:37.763Z,31.80
2022-08-28T07:56:05.004Z,31.70
2022-08-28T07:58:32.243Z,31.70
2022-08-28T08:00:59.336Z,31.60
2022-08-28T08:03:26.428Z,32.00
2022-08-28T08:05:58.208Z,32.40
2022-08-28T08:08:25.785Z,32.10
2022-08-28T08:10:56.510Z,32.40
2022-08-28T08:13:23.504Z,32.00
2022-08-28T08:15:50.702Z,32.50
2022-08-28T08:18:17.671Z,32.60
2022-08-28T08:20:47.899Z,32.60
2022-08-28T08:23:15.605Z,32.10
2022-08-28T08:25:42.510Z,32.50
2022-08-28T08:28:09.598Z,31.70
2022-08-28T08:30:37.478Z,31.70
2022-08-28T08:33:04.347Z,32.00
2022-08-28T08:35:31.441Z,31.80
2022-08-28T08:38:02.767Z,31.20
2022-08-28T08:40:29.920Z,30.80
2022-08-28T08:42:57.360Z,30.80
2022-08-28T08:45:26.772Z,30.60
2022-08-28T08:47:56.025Z,30.70
2022-08-28T08:50:24.345Z,31.00
2022-08-28T08:53:09.869Z,31.60
2022-08-28T08:55:43.157Z,32.50
2022-08-28T08:58:16.213Z,32.90
2022-08-28T09:00:55.884Z,33.30
2022-08-28T09:03:27.997Z,33.20
2022-08-28T09:05:58.288Z,32.70
2022-08-28T09:08:40.492Z,32.80
2022-08-28T09:11:13.179Z,33.30
2022-08-28T09:13:43.184Z,33.40
2022-08-28T09:16:17.085Z,33.50
2022-08-28T09:18:44.462Z,32.90
2022-08-28T09:21:12.036Z,33.00
2022-08-28T09:23:38.917Z,33.20
2022-08-28T09:26:12.900Z,33.10
2022-08-28T09:28:41.171Z,32.80
2022-08-28T09:31:10.270Z,33.70
2022-08-28T09:33:41.707Z,35.10
2022-08-28T09:36:27.583Z,34.20
2022-08-28T09:39:05.586Z,34.00
2022-08-28T09:41:51.503Z,33.80
2022-08-28T09:44:21.546Z,33.40
2022-08-28T09:46:50.330Z,33.70
2022-08-28T09:49:22.681Z,34.10
2022-08-28T09:51:53.050Z,34.40
2022-08-28T09:54:19.886Z,34.40
2022-08-28T09:56:48.178Z,34.50
2022-08-28T09:59:24.634Z,33.80
2022-08-28T10:02:06.520Z,34.00
2022-08-28T10:05:06.021Z,34.20
2022-08-28T10:07:35.226Z,33.50
2022-08-28T10:10:20.792Z,33.10
2022-08-28T10:13:11.288Z,32.90
2022-08-28T10:15:56.812Z,32.70
2022-08-28T10:18:35.990Z,33.00
2022-08-28T10:21:06.052Z,33.00
2022-08-28T10:23:42.193Z,33.40
2022-08-28T10:26:29.398Z,32.60
2022-08-28T10:28:59.276Z,32.80
2022-08-28T10:31:46.450Z,32.50
2022-08-28T10:34:26.706Z,32.30
2022-08-28T10:37:07.333Z,32.10
2022-08-28T10:40:04.525Z,32.00
2022-08-28T10:42:36.252Z,32.00
2022-08-28T10:45:24.204Z,32.10
2022-08-28T10:48:00.982Z,31.90
2022-08-28T10:50:29.619Z,31.60
2022-08-28T10:53:17.308Z,31.20
2022-08-28T10:55:51.759Z,31.30
2022-08-28T10:58:24.565Z,31.10
2022-08-28T11:00:57.109Z,31.30
2022-08-28T11:03:34.451Z,31.20
2022-08-28T11:06:05.946Z,31.40
2022-08-28T11:08:34.311Z,31.10
2022-08-28T11:11:02.323Z,31.30
2022-08-28T11:13:41.490Z,32.50
2022-08-28T11:16:20.192Z,32.20
2022-08-28T11:18:50.195Z,32.00
2022-08-28T11:21:40.004Z,32.10
2022-08-28T11:24:09.018Z,32.00
2022-08-28T11:26:56.085Z,32.00
2022-08-28T11:29:41.724Z,31.80
2022-08-28T11:32:28.097Z,32.00
2022-08-28T11:34:59.022Z,32.00
2022-08-28T11:37:42.553Z,31.90
2022-08-28T11:40:27.681Z,31.80
2022-08-28T11:43:14.350Z,31.60
2022-08-28T11:45:46.547Z,31.20
2022-08-28T11:48:23.438Z,31.50
2022-08-28T11:51:02.495Z,31.60
2022-08-28T11:53:33.820Z,31.30
2022-08-28T11:56:11.200Z,31.60
2022-08-28T11:59:00.959Z,31.50
2022-08-28T12:01:39.428Z,32.50
2022-08-28T12:04:08.548Z,33.00
2022-08-28T12:06:44.776Z,32.60
2022-08-28T12:09:12.686Z,32.80
2022-08-28T12:11:39.507Z,32.80
2022-08-28T12:14:07.567Z,33.20
2022-08-28T12:17:09.882Z,33.30
2022-08-28T12:19:43.117Z,32.90
2022-08-28T12:22:26.641Z,32.20
2022-08-28T12:25:04.971Z,32.80
2022-08-28T12:27:32.142Z,32.80
2022-08-28T12:30:00.247Z,32.30
2022-08-28T12:32:45.574Z,32.30
2022-08-28T12:35:25.501Z,32.40
2022-08-28T12:37:58.095Z,32.40
2022-08-28T12:40:26.777Z,32.20
2022-08-28T12:43:10.136Z,32.40
2022-08-28T12:45:48.609Z,32.70
2022-08-28T12:48:23.872Z,32.00
2022-08-28T12:51:08.500Z,31.70
2022-08-28T12:53:40.909Z,31.80
2022-08-28T12:56:11.873Z,31.70
2022-08-28T12:58:40.023Z,31.90
2022-08-28T13:01:18.998Z,32.00
2022-08-28T13:03:50.298Z,32.00
2022-08-28T13:06:23.487Z,32.00
2022-08-28T13:08:53.714Z,32.50
2022-08-28T13:11:20.737Z,32.00
2022-08-28T13:13:49.972Z,32.40
2022-08-28T13:16:35.488Z,32.00
2022-08-28T13:19:05.845Z,31.30
2022-08-28T13:21:35.192Z,30.80
2022-08-28T13:24:22.412Z,31.00
2022-08-28T13:27:09.689Z,31.20
2022-08-28T13:29:37.368Z,30.90
2022-08-28T13:32:09.019Z,30.60
2022-08-28T13:34:47.615Z,30.40
2022-08-28T13:37:36.906Z,30.00
2022-08-28T13:40:13.033Z,29.90
2022-08-28T13:42:47.151Z,29.60
2022-08-28T13:45:14.588Z,29.50
2022-08-28T13:47:45.926Z,29.60
2022-08-28T13:50:12.964Z,29.60
2022-08-28T13:52:39.877Z,29.80
2022-08-28T13:55:10.865Z,30.00
2022-08-28T13:57:39.573Z,30.00
2022-08-28T14:00:09.213Z,30.00
2022-08-28T14:03:03.865Z,30.00
2022-08-28T14:05:30.762Z,30.60
2022-08-28T14:07:57.619Z,30.00
2022-08-28T14:10:24.569Z,29.50
2022-08-28T14:13:01.659Z,28.80
2022-08-28T14:15:34.308Z,28.70
2022-08-28T14:18:01.764Z,28.50
2022-08-28T14:20:29.428Z,28.90
2022-08-28T14:22:56.489Z,28.50
2022-08-28T14:25:26.315Z,28.30
2022-08-28T14:27:55.972Z,28.20
2022-08-28T14:30:25.363Z,27.40
2022-08-28T14:32:52.257Z,27.10
2022-08-28T14:35:20.279Z,27.10
2022-08-28T14:37:47.192Z,27.10
2022-08-28T14:40:15.234Z,27.20
2022-08-28T14:42:42.190Z,27.10
2022-08-28T14:45:16.286Z,27.00
2022-08-28T14:47:43.514Z,26.80
2022-08-28T14:50:13.104Z,26.80
2022-08-28T14:52:41.526Z,26.70
2022-08-28T14:55:12.099Z,26.60
2022-08-28T14:57:39.022Z,26.50
2022-08-28T15:00:07.498Z,26.50
2022-08-28T15:02:44.273Z,26.30
2022-08-28T15:05:12.707Z,26.50
2022-08-28T15:07:39.598Z,26.70
2022-08-28T15:10:06.690Z,26.80
2022-08-28T15:12:36.471Z,26.60
2022-08-28T15:15:05.780Z,26.60
2022-08-28T15:17:34.885Z,26.50
2022-08-28T15:20:04.252Z,26.40
2022-08-28T15:22:59.181Z,26.30
2022-08-28T15:25:28.477Z,26.60
2022-08-28T15:27:56.170Z,27.00
2022-08-28T15:30:28.000Z,27.10
2022-08-28T15:32:58.239Z,27.40
2022-08-28T15:35:25.165Z,27.50
2022-08-28T15:37:53.611Z,27.80
2022-08-28T15:40:42.928Z,27.70
2022-08-28T15:43:09.927Z,27.70
2022-08-28T15:45:40.880Z,27.90
2022-08-28T15:48:14.143Z,28.00
2022-08-28T15:50:41.803Z,28.30
2022-08-28T15:53:09.667Z,28.40
2022-08-28T15:55:36.959Z,28.60
2022-08-28T15:58:04.445Z,28.40
2022-08-28T16:00:35.833Z,28.40
2022-08-28T16:03:03.561Z,28.30
2022-08-28T16:05:34.549Z,28.50
2022-08-28T16:08:06.368Z,28.50
2022-08-28T16:10:33.294Z,28.50
2022-08-28T16:13:01.273Z,28.50
2022-08-28T16:15:29.511Z,28.40
2022-08-28T16:17:56.386Z,28.40
2022-08-28T16:20:23.303Z,28.40
2022-08-28T16:22:51.860Z,28.40
2022-08-28T16:25:18.740Z,28.40
2022-08-28T16:27:45.701Z,28.70
2022-08-28T16:30:17.302Z,28.70
2022-08-28T16:32:46.911Z,28.60
2022-08-28T16:35:15.192Z,28.60
2022-08-28T16:37:42.192Z,28.80
2022-08-28T16:40:15.046Z,28.90
2022-08-28T16:42:42.371Z,28.90
2022-08-28T16:45:20.443Z,28.60
2022-08-28T16:47:47.491Z,28.60
2022-08-28T16:50:14.495Z,28.80
2022-08-28T16:52:41.532Z,28.70
2022-08-28T16:55:09.746Z,28.80
2022-08-28T16:57:38.104Z,28.80
2022-08-28T17:00:06.174Z,28.90
2022-08-28T17:02:34.104Z,28.90
2022-08-28T17:05:03.350Z,29.10
2022-08-28T17:07:31.894Z,29.10
2022-08-28T17:10:01.802Z,29.20
2022-08-28T17:12:28.812Z,29.10
2022-08-28T17:14:59.029Z,29.20
2022-08-28T17:17:28.198Z,29.10
2022-08-28T17:19:55.079Z,29.20
2022-08-28T17:22:33.802Z,29.00
2022-08-28T17:25:07.911Z,28.90
2022-08-28T17:27:36.844Z,29.20
2022-08-28T17:30:05.144Z,29.00
2022-08-28T17:32:34.489Z,28.90
2022-08-28T17:35:05.569Z,28.80
2022-08-28T17:37:35.317Z,28.80
2022-08-28T17:40:02.430Z,28.60
2022-08-28T17:42:29.363Z,28.50
2022-08-28T17:44:56.210Z,28.60
2022-08-28T17:47:27.332Z,28.60
2022-08-28T17:49:58.669Z,28.40
2022-08-28T17:52:25.550Z,28.50
2022-08-28T17:54:52.501Z,28.40
2022-08-28T17:57:19.465Z,28.40
2022-08-28T17:59:46.389Z,28.50
2022-08-28T18:02:17.309Z,28.70
2022-08-28T18:04:44.910Z,28.80
2022-08-28T18:07:12.126Z,28.70
2022-08-28T18:09:38.964Z,28.60
2022-08-28T18:12:06.985Z,28.60
2022-08-28T18:14:40.017Z,28.70
2022-08-28T18:17:09.195Z,28.50
2022-08-28T18:19:36.972Z,28.70
2022-08-28T18:22:03.912Z,28.70
2022-08-28T18:24:31.964Z,28.80
2022-08-28T18:27:01.114Z,28.60
2022-08-28T18:29:30.815Z,28.50
2022-08-28T18:31:59.101Z,28.40
2022-08-28T18:34:26.128Z,28.20
2022-08-28T18:36:54.875Z,28.10
2022-08-28T18:39:29.677Z,28.10
2022-08-28T18:41:58.249Z,28.10
2022-08-28T18:44:25.998Z,28.10
2022-08-28T18:46:53.053Z,28.80
2022-08-28T18:49:19.967Z,28.20
2022-08-28T18:51:46.906Z,28.10
2022-08-28T18:54:16.382Z,28.30
2022-08-28T18:56:43.812Z,28.30
2022-08-28T18:59:10.728Z,28.70
2022-08-28T19:01:38.362Z,29.10
2022-08-28T19:04:06.130Z,29.30
2022-08-28T19:06:33.906Z,29.00
2022-08-28T19:09:06.895Z,29.30
2022-08-28T19:11:33.946Z,29.70
2022-08-28T19:14:03.880Z,29.30
2022-08-28T19:16:32.037Z,28.90
2022-08-28T19:18:58.966Z,29.10
2022-08-28T19:21:28.466Z,29.30
2022-08-28T19:23:56.369Z,29.40
2022-08-28T19:26:24.795Z,29.80
2022-08-28T19:28:52.196Z,29.50
2022-08-28T19:31:19.166Z,29.20
2022-08-28T19:33:46.747Z,29.20
2022-08-28T19:36:14.497Z,29.20
2022-08-28T19:38:41.993Z,29.00
2022-08-28T19:41:10.284Z,28.80
2022-08-28T19:43:44.723Z,28.80
2022-08-28T19:46:18.733Z,29.00
2022-08-28T19:48:48.206Z,28.90
2022-08-28T19:51:22.938Z,28.90
2022-08-28T19:53:58.461Z,29.00
2022-08-28T19:56:29.887Z,29.20
2022-08-28T19:59:00.933Z,29.30
2022-08-28T20:01:30.021Z,29.40
2022-08-28T20:03:58.220Z,29.80
2022-08-28T20:06:25.267Z,30.10
2022-08-28T20:08:52.207Z,30.10
2022-08-28T20:11:24.701Z,30.10
2022-08-28T20:13:52.615Z,29.90
2022-08-28T20:16:19.569Z,30.00
2022-08-28T20:18:46.662Z,30.00
2022-08-28T20:21:14.490Z,30.30
2022-08-28T20:23:41.372Z,30.40
2022-08-28T20:26:11.496Z,30.50
2022-08-28T20:28:38.615Z,30.70
2022-08-28T20:31:14.037Z,30.20
2022-08-28T20:33:41.409Z,30.00
2022-08-28T20:36:11.881Z,30.10
2022-08-28T20:38:51.124Z,30.10
2022-08-28T20:41:26.353Z,30.50
2022-08-28T20:43:53.371Z,30.20
2022-08-28T20:46:20.395Z,29.90
2022-08-28T20:48:47.744Z,29.70
2022-08-28T20:51:15.175Z,29.70
2022-08-28T20:53:44.331Z,29.60
2022-08-28T20:56:12.253Z,29.60
2022-08-28T20:58:39.210Z,29.60
2022-08-28T21:01:06.405Z,29.30
2022-08-28T21:03:33.777Z,29.10
2022-08-28T21:06:02.337Z,29.10
2022-08-28T21:08:29.370Z,29.00
2022-08-28T21:10:56.256Z,29.20
2022-08-28T21:13:23.865Z,29.20
2022-08-28T21:15:50.926Z,29.60
2022-08-28T21:18:18.191Z,28.90
2022-08-28T21:20:46.623Z,28.80
2022-08-28T21:23:14.201Z,29.00
2022-08-28T21:25:41.897Z,29.30
2022-08-28T21:28:08.980Z,29.40
2022-08-28T21:30:35.970Z,29.70
2022-08-28T21:33:05.378Z,29.80
2022-08-28T21:35:32.381Z,30.00
2022-08-28T21:37:59.257Z,29.90
2022-08-28T21:40:26.153Z,30.70
2022-08-28T21:42:53.168Z,30.90
2022-08-28T21:45:22.762Z,31.40
2022-08-28T21:47:49.820Z,31.50
2022-08-28T21:50:17.678Z,31.40
2022-08-28T21:52:44.572Z,31.10
2022-08-28T21:55:13.282Z,31.20
2022-08-28T21:57:40.502Z,30.90
2022-08-28T22:00:09.867Z,30.70
2022-08-28T22:02:36.880Z,30.30
2022-08-28T22:05:04.053Z,29.90
2022-08-28T22:07:30.955Z,29.50
2022-08-28T22:09:57.807Z,29.10
2022-08-28T22:12:24.668Z,28.70
2022-08-28T22:14:52.007Z,28.50
2022-08-28T22:17:19.382Z,28.40
2022-08-28T22:19:46.646Z,28.40
2022-08-28T22:22:33.074Z,28.90
2022-08-28T22:25:01.475Z,29.10
2022-08-28T22:27:28.443Z,29.30
2022-08-28T22:29:55.892Z,29.60
2022-08-28T22:32:25.767Z,29.50
2022-08-28T22:34:52.969Z,30.20
2022-08-28T22:37:19.882Z,30.40
2022-08-28T22:39:46.813Z,30.20
2022-08-28T22:42:13.700Z,30.40
2022-08-28T22:44:40.602Z,30.30
2022-08-28T22:47:07.543Z,31.30
2022-08-28T22:49:34.798Z,31.10
2022-08-28T22:52:09.786Z,31.20
2022-08-28T22:54:36.735Z,30.70
2022-08-28T22:57:03.649Z,30.60
2022-08-28T22:59:32.235Z,30.20
2022-08-28T23:01:59.681Z,30.70
2022-08-28T23:04:26.950Z,30.30
2022-08-28T23:06:53.981Z,30.50
2022-08-28T23:09:20.981Z,31.10
2022-08-28T23:11:49.591Z,30.90
2022-08-28T23:14:16.966Z,30.20
2022-08-28T23:16:45.101Z,30.00
2022-08-28T23:19:13.238Z,30.40
2022-08-28T23:21:43.608Z,31.00
2022-08-28T23:24:12.031Z,30.40
2022-08-28T23:26:38.969Z,30.00
2022-08-28T23:29:05.867Z,30.00
2022-08-28T23:31:32.763Z,30.10
2022-08-28T23:33:59.760Z,30.30
2022-08-28T23:36:26.659Z,30.30
2022-08-28T23:38:53.508Z,30.70
2022-08-28T23:41:20.477Z,30.30
2022-08-28T23:43:47.353Z,30.00
2022-08-28T23:46:18.143Z,30.00
2022-08-28T23:48:45.605Z,30.00
2022-08-28T23:51:17.131Z,30.50
2022-08-28T23:53:44.263Z,30.80
2022-08-28T23:56:13.642Z,30.80
2022-08-28T23:58:43.302Z,31.00
